createdAt,value
2023-04-12T00:00:49.957Z,1009.11
2023-04-12T00:01:50.357Z,1009.08
2023-04-12T00:02:50.700Z,1009.13
2023-04-12T00:03:51.311Z,1009.07
2023-04-12T00:04:51.456Z,1009.04
2023-04-12T00:05:51.753Z,1009.08
2023-04-12T00:06:52.094Z,1009.05
2023-04-12T00:07:52.460Z,1009.02
2023-04-12T00:08:52.787Z,1008.98
2023-04-12T00:09:53.164Z,1008.98
2023-04-12T00:10:53.553Z,1008.94
2023-04-12T00:11:53.813Z,1008.98
2023-04-12T00:12:54.167Z,1008.91
2023-04-12T00:13:54.798Z,1008.86
2023-04-12T00:14:54.897Z,1008.87
2023-04-12T00:15:55.241Z,1008.89
2023-04-12T00:16:55.558Z,1008.86
2023-04-12T00:17:55.921Z,1008.89
2023-04-12T00:18:56.261Z,1008.84
2023-04-12T00:19:56.621Z,1008.87
2023-04-12T00:20:56.972Z,1008.80
2023-04-12T00:21:57.340Z,1008.81
2023-04-12T00:22:57.789Z,1008.80
2023-04-12T00:23:58.214Z,1008.78
2023-04-12T00:24:58.384Z,1008.73
2023-04-12T00:25:58.767Z,1008.72
2023-04-12T00:26:59.099Z,1008.74
2023-04-12T00:27:59.432Z,1008.75
2023-04-12T00:28:59.793Z,1008.75
2023-04-12T00:30:00.228Z,1008.66
2023-04-12T00:31:00.534Z,1008.71
2023-04-12T00:32:00.839Z,1008.66
2023-04-12T00:33:01.279Z,1008.60
2023-04-12T00:34:01.585Z,1008.58
2023-04-12T00:35:01.945Z,1008.61
2023-04-12T00:36:02.300Z,1008.59
2023-04-12T00:37:02.589Z,1008.56
2023-04-12T00:38:02.939Z,1008.57
2023-04-12T00:39:03.328Z,1008.54
2023-04-12T00:40:03.641Z,1008.46
2023-04-12T00:41:03.998Z,1008.47
2023-04-12T00:42:04.358Z,1008.45
2023-04-12T00:43:04.702Z,1008.47
2023-04-12T00:44:05.053Z,1008.46
2023-04-12T00:45:05.437Z,1008.38
2023-04-12T00:46:05.747Z,1008.38
2023-04-12T00:47:06.147Z,1008.34
2023-04-12T00:48:06.431Z,1008.32
2023-04-12T00:49:06.791Z,1008.32
2023-04-12T00:50:07.169Z,1008.32
2023-04-12T00:51:07.519Z,1008.34
2023-04-12T00:52:07.839Z,1008.31
2023-04-12T00:53:08.182Z,1008.31
2023-04-12T00:54:08.538Z,1008.28
2023-04-12T00:55:08.903Z,1008.20
2023-04-12T00:56:09.305Z,1008.19
2023-04-12T00:57:09.612Z,1008.19
2023-04-12T00:58:09.963Z,1008.15
2023-04-12T00:59:10.319Z,1008.12
2023-04-12T01:00:10.695Z,1008.11
2023-04-12T01:01:11.051Z,1008.04
2023-04-12T01:02:11.491Z,1008.07
2023-04-12T01:03:11.884Z,1008.05
2023-04-12T01:04:12.107Z,1008.04
2023-04-12T01:05:12.475Z,1008.01
2023-04-12T01:06:12.776Z,1008.00
2023-04-12T01:07:13.127Z,1008.00
2023-04-12T01:08:13.515Z,1007.96
2023-04-12T01:09:13.847Z,1008.00
2023-04-12T01:10:14.200Z,1007.95
2023-04-12T01:11:14.548Z,1007.93
2023-04-12T01:12:14.918Z,1007.90
2023-04-12T01:13:15.258Z,1007.92
2023-04-12T01:14:15.621Z,1007.93
2023-04-12T01:15:16.015Z,1007.86
2023-04-12T01:16:16.367Z,1007.87
2023-04-12T01:17:16.654Z,1007.88
2023-04-12T01:18:17.026Z,1007.89
2023-04-12T01:19:17.366Z,1007.87
2023-04-12T01:20:17.742Z,1007.83
2023-04-12T01:21:18.073Z,1007.81
2023-04-12T01:22:18.415Z,1007.80
2023-04-12T01:23:18.755Z,1007.76
2023-04-12T01:24:19.124Z,1007.76
2023-04-12T01:25:19.483Z,1007.74
2023-04-12T01:26:19.846Z,1007.71
2023-04-12T01:27:20.178Z,1007.72
2023-04-12T01:28:20.545Z,1007.67
2023-04-12T01:29:20.897Z,1007.65
2023-04-12T01:30:21.283Z,1007.65
2023-04-12T01:31:21.635Z,1007.64
2023-04-12T01:32:22.032Z,1007.67
2023-04-12T01:33:22.343Z,1007.67
2023-04-12T01:34:22.691Z,1007.62
2023-04-12T01:35:23.101Z,1007.61
2023-04-12T01:36:23.394Z,1007.56
2023-04-12T01:37:23.736Z,1007.60
2023-04-12T01:38:24.074Z,1007.58
2023-04-12T01:39:24.438Z,1007.62
2023-04-12T01:40:24.812Z,1007.58
2023-04-12T01:41:25.145Z,1007.56
2023-04-12T01:42:25.527Z,1007.54
2023-04-12T01:43:25.834Z,1007.54
2023-04-12T01:44:26.196Z,1007.53
2023-04-12T01:45:26.571Z,1007.46
2023-04-12T01:46:26.901Z,1007.43
2023-04-12T01:47:27.352Z,1007.39
2023-04-12T01:48:27.591Z,1007.38
2023-04-12T01:49:27.968Z,1007.37
2023-04-12T01:50:28.316Z,1007.34
2023-04-12T01:51:28.680Z,1007.34
2023-04-12T01:52:29.039Z,1007.32
2023-04-12T01:53:29.389Z,1007.27
2023-04-12T01:54:29.721Z,1007.31
2023-04-12T01:55:30.089Z,1007.25
2023-04-12T01:56:30.411Z,1007.24
2023-04-12T01:57:30.755Z,1007.24
2023-04-12T01:58:31.106Z,1007.22
2023-04-12T01:59:31.467Z,1007.24
2023-04-12T02:00:31.833Z,1007.21
2023-04-12T02:01:32.170Z,1007.23
2023-04-12T02:02:32.593Z,1007.16
2023-04-12T02:03:32.905Z,1007.14
2023-04-12T02:04:33.170Z,1007.13
2023-04-12T02:05:33.532Z,1007.11
2023-04-12T02:06:33.985Z,1007.08
2023-04-12T02:07:34.235Z,1007.01
2023-04-12T02:08:34.587Z,1007.01
2023-04-12T02:09:34.929Z,1007.01
2023-04-12T02:10:35.312Z,1006.99
2023-04-12T02:11:35.631Z,1007.03
2023-04-12T02:12:35.959Z,1007.00
2023-04-12T02:13:36.308Z,1007.00
2023-04-12T02:14:36.674Z,1007.00
2023-04-12T02:15:37.040Z,1007.02
2023-04-12T02:16:37.384Z,1006.97
2023-04-12T02:17:37.798Z,1006.95
2023-04-12T02:18:38.115Z,1006.99
2023-04-12T02:19:38.420Z,1006.91
2023-04-12T02:20:38.766Z,1006.96
2023-04-12T02:21:39.094Z,1006.90
2023-04-12T02:22:39.467Z,1006.87
2023-04-12T02:23:39.809Z,1006.81
2023-04-12T02:24:40.162Z,1006.77
2023-04-12T02:25:40.524Z,1006.75
2023-04-12T02:26:40.871Z,1006.73
2023-04-12T02:27:41.210Z,1006.70
2023-04-12T02:28:41.643Z,1006.76
2023-04-12T02:29:41.972Z,1006.76
2023-04-12T02:30:42.357Z,1006.68
2023-04-12T02:31:42.685Z,1006.67
2023-04-12T02:32:43.055Z,1006.60
2023-04-12T02:33:43.353Z,1006.58
2023-04-12T02:34:43.706Z,1006.56
2023-04-12T02:35:44.116Z,1006.52
2023-04-12T02:36:44.442Z,1006.48
2023-04-12T02:37:44.791Z,1006.45
2023-04-12T02:38:45.140Z,1006.41
2023-04-12T02:39:45.530Z,1006.37
2023-04-12T02:40:45.854Z,1006.39
2023-04-12T02:41:46.217Z,1006.31
2023-04-12T02:42:46.574Z,1006.28
2023-04-12T02:43:46.914Z,1006.27
2023-04-12T02:44:47.297Z,1006.24
2023-04-12T02:45:47.674Z,1006.17
2023-04-12T02:46:47.958Z,1006.20
2023-04-12T02:47:48.326Z,1006.15
2023-04-12T02:48:48.653Z,1006.13
2023-04-12T02:49:49.033Z,1006.11
2023-04-12T02:50:49.446Z,1006.10
2023-04-12T02:51:49.733Z,1006.05
2023-04-12T02:52:50.100Z,1006.01
2023-04-12T02:53:50.418Z,1005.97
2023-04-12T02:54:50.762Z,1005.95
2023-04-12T02:55:51.140Z,1005.92
2023-04-12T02:56:51.485Z,1005.87
2023-04-12T02:57:51.834Z,1005.90
2023-04-12T02:58:52.169Z,1005.82
2023-04-12T02:59:52.531Z,1005.80
2023-04-12T03:00:52.922Z,1005.77
2023-04-12T03:01:53.331Z,1005.82
2023-04-12T03:02:53.735Z,1005.82
2023-04-12T03:03:54.157Z,1005.75
2023-04-12T03:04:54.315Z,1005.77
2023-04-12T03:05:54.661Z,1005.69
2023-04-12T03:06:55.022Z,1005.69
2023-04-12T03:07:55.362Z,1005.65
2023-04-12T03:08:55.702Z,1005.66
2023-04-12T03:09:56.088Z,1005.62
2023-04-12T03:10:56.465Z,1005.60
2023-04-12T03:11:56.787Z,1005.64
2023-04-12T03:12:57.138Z,1005.62
2023-04-12T03:13:57.787Z,1005.58
2023-04-12T03:14:57.850Z,1005.56
2023-04-12T03:15:58.352Z,1005.56
2023-04-12T03:16:58.571Z,1005.53
2023-04-12T03:17:58.943Z,1005.49
2023-04-12T03:18:59.254Z,1005.48
2023-04-12T03:19:59.604Z,1005.41
2023-04-12T03:20:59.968Z,1005.46
2023-04-12T03:22:00.316Z,1005.42
2023-04-12T03:23:00.656Z,1005.32
2023-04-12T03:24:01.001Z,1005.31
2023-04-12T03:25:01.377Z,1005.35
2023-04-12T03:26:01.737Z,1005.28
2023-04-12T03:27:02.095Z,1005.23
2023-04-12T03:28:02.412Z,1005.23
2023-04-12T03:29:02.748Z,1005.20
2023-04-12T03:30:03.102Z,1005.21
2023-04-12T03:31:03.505Z,1005.19
2023-04-12T03:32:03.868Z,1005.21
2023-04-12T03:33:04.234Z,1005.19
2023-04-12T03:34:04.543Z,1005.11
2023-04-12T03:35:04.882Z,1005.20
2023-04-12T03:36:05.289Z,1005.13
2023-04-12T03:37:05.619Z,1005.05
2023-04-12T03:38:05.936Z,1005.07
2023-04-12T03:39:06.337Z,1004.92
2023-04-12T03:40:06.622Z,1004.98
2023-04-12T03:41:07.007Z,1004.95
2023-04-12T03:42:10.163Z,1004.92
2023-04-12T03:43:07.673Z,1004.89
2023-04-12T03:44:08.033Z,1004.90
2023-04-12T03:45:08.387Z,1004.88
2023-04-12T03:46:08.739Z,1004.80
2023-04-12T03:47:09.099Z,1004.81
2023-04-12T03:48:09.439Z,1004.78
2023-04-12T03:49:09.772Z,1004.80
2023-04-12T03:50:12.391Z,1004.73
2023-04-12T03:51:10.556Z,1004.73
2023-04-12T03:52:10.849Z,1004.68
2023-04-12T03:53:11.062Z,1004.66
2023-04-12T03:54:11.356Z,1004.65
2023-04-12T03:55:11.646Z,1004.66
2023-04-12T03:56:11.958Z,1004.65
2023-04-12T03:57:12.199Z,1004.62
2023-04-12T03:58:12.380Z,1004.55
2023-04-12T03:59:12.661Z,1004.53
2023-04-12T04:00:12.968Z,1004.52
2023-04-12T04:01:13.274Z,1004.48
2023-04-12T04:02:13.572Z,1004.49
2023-04-12T04:03:13.911Z,1004.49
2023-04-12T04:04:14.207Z,1004.47
2023-04-12T04:05:14.452Z,1004.39
2023-04-12T04:06:14.692Z,1004.46
2023-04-12T04:07:14.941Z,1004.39
2023-04-12T04:08:15.116Z,1004.38
2023-04-12T04:09:15.421Z,1004.37
2023-04-12T04:10:15.676Z,1004.30
2023-04-12T04:11:15.861Z,1004.25
2023-04-12T04:12:16.148Z,1004.26
2023-04-12T04:13:16.307Z,1004.24
2023-04-12T04:14:16.623Z,1004.24
2023-04-12T04:15:16.877Z,1004.23
2023-04-12T04:16:17.224Z,1004.22
2023-04-12T04:17:17.459Z,1004.18
2023-04-12T04:18:17.733Z,1004.19
2023-04-12T04:19:18.121Z,1004.16
2023-04-12T04:20:18.200Z,1004.12
2023-04-12T04:21:18.378Z,1004.09
2023-04-12T04:22:18.661Z,1004.14
2023-04-12T04:23:18.954Z,1004.16
2023-04-12T04:24:19.225Z,1004.08
2023-04-12T04:25:19.405Z,1004.11
2023-04-12T04:26:19.709Z,1004.03
2023-04-12T04:27:19.986Z,1004.03
2023-04-12T04:28:20.162Z,1004.02
2023-04-12T04:29:20.327Z,1004.03
2023-04-12T04:30:20.516Z,1004.04
2023-04-12T04:31:20.728Z,1004.06
2023-04-12T04:32:20.897Z,1004.01
2023-04-12T04:33:21.098Z,1003.96
2023-04-12T04:34:21.217Z,1003.96
2023-04-12T04:35:21.515Z,1004.00
2023-04-12T04:36:21.595Z,1003.95
2023-04-12T04:37:21.749Z,1003.90
2023-04-12T04:38:21.925Z,1003.86
2023-04-12T04:39:22.092Z,1003.87
2023-04-12T04:40:22.293Z,1003.76
2023-04-12T04:41:22.458Z,1003.72
2023-04-12T04:42:22.619Z,1003.75
2023-04-12T04:43:22.829Z,1003.73
2023-04-12T04:44:22.992Z,1003.73
2023-04-12T04:45:23.167Z,1003.72
2023-04-12T04:46:23.350Z,1003.68
2023-04-12T04:47:23.543Z,1003.72
2023-04-12T04:48:23.660Z,1003.65
2023-04-12T04:49:23.830Z,1003.67
2023-04-12T04:50:24.027Z,1003.72
2023-04-12T04:51:24.340Z,1003.74
2023-04-12T04:52:24.500Z,1003.69
2023-04-12T04:53:24.639Z,1003.61
2023-04-12T04:54:24.824Z,1003.67
2023-04-12T04:55:24.996Z,1003.67
2023-04-12T04:56:25.190Z,1003.62
2023-04-12T04:57:25.341Z,1003.62
2023-04-12T04:58:25.526Z,1003.60
2023-04-12T04:59:25.724Z,1003.63
2023-04-12T05:00:26.021Z,1003.63
2023-04-12T05:01:26.335Z,1003.63
2023-04-12T05:02:26.479Z,1003.63
2023-04-12T05:03:29.530Z,1003.62
2023-04-12T05:04:27.059Z,1003.60
2023-04-12T05:05:27.101Z,1003.66
2023-04-12T05:06:27.328Z,1003.55
2023-04-12T05:07:27.575Z,1003.58
2023-04-12T05:08:27.872Z,1003.56
2023-04-12T05:09:28.158Z,1003.50
2023-04-12T05:10:28.447Z,1003.53
2023-04-12T05:11:28.656Z,1003.53
2023-04-12T05:12:28.837Z,1003.53
2023-04-12T05:13:29.107Z,1003.46
2023-04-12T05:14:41.671Z,1003.43
2023-04-12T05:15:29.480Z,1003.40
2023-04-12T05:16:29.821Z,1003.37
2023-04-12T05:17:29.995Z,1003.36
2023-04-12T05:18:30.147Z,1003.38
2023-04-12T05:19:30.308Z,1003.34
2023-04-12T05:20:30.495Z,1003.34
2023-04-12T05:21:30.681Z,1003.36
2023-04-12T05:22:30.856Z,1003.29
2023-04-12T05:23:31.033Z,1003.32
2023-04-12T05:24:31.206Z,1003.25
2023-04-12T05:25:31.519Z,1003.27
2023-04-12T05:26:31.713Z,1003.28
2023-04-12T05:27:31.888Z,1003.33
2023-04-12T05:28:32.063Z,1003.33
2023-04-12T05:29:32.245Z,1003.31
2023-04-12T05:30:32.493Z,1003.23
2023-04-12T05:31:32.619Z,1003.22
2023-04-12T05:32:32.837Z,1003.22
2023-04-12T05:33:33.489Z,1003.20
2023-04-12T05:34:33.150Z,1003.19
2023-04-12T05:35:33.335Z,1003.19
2023-04-12T05:36:33.516Z,1003.17
2023-04-12T05:37:33.694Z,1003.21
2023-04-12T05:38:33.858Z,1003.19
2023-04-12T05:39:34.034Z,1003.18
2023-04-12T05:40:34.287Z,1003.16
2023-04-12T05:41:34.401Z,1003.15
2023-04-12T05:42:34.578Z,1003.08
2023-04-12T05:43:34.736Z,1003.11
2023-04-12T05:44:34.932Z,1003.11
2023-04-12T05:45:35.114Z,1003.04
2023-04-12T05:46:35.493Z,1003.00
2023-04-12T05:47:35.622Z,1003.00
2023-04-12T05:48:35.790Z,1002.95
2023-04-12T05:49:36.102Z,1002.99
2023-04-12T05:50:36.403Z,1003.00
2023-04-12T05:51:41.361Z,1002.95
2023-04-12T05:52:36.999Z,1002.98
2023-04-12T05:53:37.181Z,1002.94
2023-04-12T05:54:37.349Z,1003.00
2023-04-12T05:55:38.160Z,1003.00
2023-04-12T05:56:37.862Z,1003.03
2023-04-12T05:57:38.127Z,1003.07
2023-04-12T05:58:38.426Z,1003.09
2023-04-12T05:59:38.737Z,1003.07
2023-04-12T06:00:38.937Z,1003.08
2023-04-12T06:01:39.173Z,1003.03
2023-04-12T06:02:39.442Z,1002.95
2023-04-12T06:03:39.762Z,1002.91
2023-04-12T06:04:50.172Z,1002.87
2023-04-12T06:05:40.069Z,1002.86
2023-04-12T06:06:40.270Z,1002.80
2023-04-12T06:07:40.559Z,1002.78
2023-04-12T06:08:40.839Z,1002.76
2023-04-12T06:09:41.158Z,1002.75
2023-04-12T06:10:41.331Z,1002.76
2023-04-12T06:11:41.515Z,1002.78
2023-04-12T06:12:41.687Z,1002.72
2023-04-12T06:13:41.857Z,1002.73
2023-04-12T06:14:42.151Z,1002.71
2023-04-12T06:15:42.370Z,1002.66
2023-04-12T06:16:42.594Z,1002.71
2023-04-12T06:17:42.743Z,1002.66
2023-04-12T06:18:42.883Z,1002.72
2023-04-12T06:19:43.035Z,1002.75
2023-04-12T06:20:43.341Z,1002.78
2023-04-12T06:21:43.532Z,1002.71
2023-04-12T06:22:43.694Z,1002.69
2023-04-12T06:23:43.873Z,1002.67
2023-04-12T06:24:44.054Z,1002.70
2023-04-12T06:25:44.230Z,1002.66
2023-04-12T06:26:44.552Z,1002.68
2023-04-12T06:27:44.835Z,1002.67
2023-04-12T06:28:45.142Z,1002.58
2023-04-12T06:29:45.311Z,1002.62
2023-04-12T06:30:45.498Z,1002.59
2023-04-12T06:31:45.805Z,1002.58
2023-04-12T06:32:45.863Z,1002.57
2023-04-12T06:33:46.043Z,1002.50
2023-04-12T06:34:46.221Z,1002.58
2023-04-12T06:35:46.430Z,1002.49
2023-04-12T06:36:46.614Z,1002.46
2023-04-12T06:37:46.886Z,1002.42
2023-04-12T06:38:47.052Z,1002.38
2023-04-12T06:39:47.233Z,1002.43
2023-04-12T06:40:47.530Z,1002.38
2023-04-12T06:41:47.709Z,1002.40
2023-04-12T06:42:48.110Z,1002.34
2023-04-12T06:43:48.053Z,1002.45
2023-04-12T06:44:48.484Z,1002.36
2023-04-12T06:45:48.534Z,1002.32
2023-04-12T06:46:48.807Z,1002.39
2023-04-12T06:47:48.934Z,1002.37
2023-04-12T06:48:49.057Z,1002.35
2023-04-12T06:49:49.235Z,1002.35
2023-04-12T06:50:49.412Z,1002.33
2023-04-12T06:51:49.625Z,1002.21
2023-04-12T06:52:49.780Z,1002.23
2023-04-12T06:53:50.077Z,1002.25
2023-04-12T06:54:50.264Z,1002.22
2023-04-12T06:55:50.571Z,1002.23
2023-04-12T06:56:50.795Z,1002.22
2023-04-12T06:57:51.049Z,1002.21
2023-04-12T06:58:51.357Z,1002.27
2023-04-12T06:59:51.682Z,1002.23
2023-04-12T07:00:51.851Z,1002.23
2023-04-12T07:01:52.090Z,1002.20
2023-04-12T07:02:52.657Z,1002.14
2023-04-12T07:03:52.620Z,1002.22
2023-04-12T07:04:52.667Z,1002.19
2023-04-12T07:05:52.960Z,1002.25
2023-04-12T07:06:53.288Z,1002.22
2023-04-12T07:07:53.461Z,1002.14
2023-04-12T07:08:53.642Z,1002.15
2023-04-12T07:09:53.938Z,1002.06
2023-04-12T07:10:54.104Z,1002.04
2023-04-12T07:11:54.318Z,1002.05
2023-04-12T07:12:54.642Z,1002.05
2023-04-12T07:13:54.773Z,1002.01
2023-04-12T07:14:54.969Z,1002.00
2023-04-12T07:15:55.159Z,1001.93
2023-04-12T07:16:55.402Z,1001.95
2023-04-12T07:17:55.528Z,1001.96
2023-04-12T07:18:56.085Z,1001.98
2023-04-12T07:19:56.005Z,1001.94
2023-04-12T07:20:56.168Z,1001.95
2023-04-12T07:21:56.365Z,1001.90
2023-04-12T07:22:56.527Z,1001.91
2023-04-12T07:23:56.827Z,1001.87
2023-04-12T07:24:57.166Z,1001.90
2023-04-12T07:25:57.456Z,1001.91
2023-04-12T07:26:57.647Z,1001.79
2023-04-12T07:27:57.813Z,1001.78
2023-04-12T07:28:58.389Z,1001.79
2023-04-12T07:29:58.640Z,1001.77
2023-04-12T07:30:58.615Z,1001.80
2023-04-12T07:31:58.779Z,1001.78
2023-04-12T07:33:08.299Z,1001.74
2023-04-12T07:33:59.355Z,1001.75
2023-04-12T07:34:59.435Z,1001.82
2023-04-12T07:35:59.656Z,1001.81
2023-04-12T07:36:59.809Z,1001.76
2023-04-12T07:37:59.972Z,1001.79
2023-04-12T07:39:00.385Z,1001.77
2023-04-12T07:40:00.445Z,1001.72
2023-04-12T07:41:00.519Z,1001.70
2023-04-12T07:42:00.708Z,1001.70
2023-04-12T07:43:00.878Z,1001.66
2023-04-12T07:44:01.172Z,1001.67
2023-04-12T07:45:01.356Z,1001.61
2023-04-12T07:46:01.744Z,1001.60
2023-04-12T07:47:01.886Z,1001.50
2023-04-12T07:48:02.062Z,1001.58
2023-04-12T07:49:02.211Z,1001.56
2023-04-12T07:50:02.494Z,1001.57
2023-04-12T07:51:02.673Z,1001.60
2023-04-12T07:52:02.875Z,1001.47
2023-04-12T07:53:03.024Z,1001.49
2023-04-12T07:54:03.344Z,1001.49
2023-04-12T07:55:03.511Z,1001.40
2023-04-12T07:56:03.682Z,1001.41
2023-04-12T07:57:04.024Z,1001.37
2023-04-12T07:58:04.164Z,1001.29
2023-04-12T07:59:04.472Z,1001.29
2023-04-12T08:00:04.632Z,1001.29
2023-04-12T08:01:04.948Z,1001.23
2023-04-12T08:02:05.395Z,1001.20
2023-04-12T08:03:05.547Z,1001.15
2023-04-12T08:04:05.697Z,1001.20
2023-04-12T08:05:05.793Z,1001.14
2023-04-12T08:06:06.006Z,1001.14
2023-04-12T08:07:06.178Z,1001.08
2023-04-12T08:08:06.324Z,1001.04
2023-04-12T08:09:06.636Z,1001.05
2023-04-12T08:10:06.806Z,1001.00
2023-04-12T08:11:07.100Z,1000.97
2023-04-12T08:12:07.440Z,1000.94
2023-04-12T08:13:07.723Z,1000.94
2023-04-12T08:14:07.883Z,1000.91
2023-04-12T08:15:08.202Z,1000.84
2023-04-12T08:16:08.485Z,1000.79
2023-04-12T08:17:08.560Z,1000.82
2023-04-12T08:18:08.888Z,1000.83
2023-04-12T08:19:09.034Z,1000.78
2023-04-12T08:20:09.222Z,1000.84
2023-04-12T08:21:09.507Z,1000.84
2023-04-12T08:22:11.969Z,1000.80
2023-04-12T08:23:09.993Z,1000.77
2023-04-12T08:24:10.195Z,1000.75
2023-04-12T08:25:10.353Z,1000.74
2023-04-12T08:26:10.662Z,1000.74
2023-04-12T08:27:10.885Z,1000.68
2023-04-12T08:28:11.158Z,1000.67
2023-04-12T08:29:11.362Z,1000.57
2023-04-12T08:30:11.512Z,1000.65
2023-04-12T08:31:11.775Z,1000.56
2023-04-12T08:32:11.875Z,1000.49
2023-04-12T08:33:12.076Z,1000.47
2023-04-12T08:34:12.251Z,1000.42
2023-04-12T08:35:12.435Z,1000.49
2023-04-12T08:36:12.652Z,1000.44
2023-04-12T08:37:12.839Z,1000.40
2023-04-12T08:38:12.967Z,1000.32
2023-04-12T08:39:13.178Z,1000.37
2023-04-12T08:40:13.356Z,1000.27
2023-04-12T08:41:14.494Z,1000.34
2023-04-12T08:42:13.758Z,1000.29
2023-04-12T08:43:14.001Z,1000.35
2023-04-12T08:44:14.131Z,1000.24
2023-04-12T08:45:14.332Z,1000.31
2023-04-12T08:46:14.530Z,1000.28
2023-04-12T08:47:14.754Z,1000.33
2023-04-12T08:48:14.872Z,1000.31
2023-04-12T08:49:15.094Z,1000.25
2023-04-12T08:50:15.272Z,1000.28
2023-04-12T08:51:15.454Z,1000.25
2023-04-12T08:52:15.646Z,1000.15
2023-04-12T08:53:15.799Z,1000.23
2023-04-12T08:54:16.027Z,1000.24
2023-04-12T08:55:16.150Z,1000.23
2023-04-12T08:56:16.349Z,1000.20
2023-04-12T08:57:16.537Z,1000.16
2023-04-12T08:58:16.712Z,1000.11
2023-04-12T08:59:17.039Z,1000.13
2023-04-12T09:00:17.086Z,1000.13
2023-04-12T09:01:17.277Z,1000.13
2023-04-12T09:02:17.589Z,1000.18
2023-04-12T09:03:18.174Z,1000.07
2023-04-12T09:04:17.929Z,1000.07
2023-04-12T09:05:18.029Z,1000.05
2023-04-12T09:06:18.198Z,1000.07
2023-04-12T09:07:18.399Z,999.99
2023-04-12T09:08:18.552Z,999.98
2023-04-12T09:09:18.728Z,999.97
2023-04-12T09:10:18.934Z,999.90
2023-04-12T09:11:19.075Z,999.89
2023-04-12T09:12:19.262Z,999.91
2023-04-12T09:13:19.458Z,999.91
2023-04-12T09:14:19.717Z,999.85
2023-04-12T09:15:20.029Z,999.84
2023-04-12T09:16:20.398Z,999.84
2023-04-12T09:17:20.546Z,999.74
2023-04-12T09:18:20.866Z,999.70
2023-04-12T09:19:21.087Z,999.70
2023-04-12T09:20:21.381Z,999.65
2023-04-12T09:21:21.681Z,999.62
2023-04-12T09:22:22.004Z,999.61
2023-04-12T09:23:22.305Z,999.63
2023-04-12T09:24:22.454Z,999.58
2023-04-12T09:25:22.771Z,999.45
2023-04-12T09:26:22.953Z,999.58
2023-04-12T09:27:23.246Z,999.52
2023-04-12T09:28:23.420Z,999.59
2023-04-12T09:29:23.763Z,999.51
2023-04-12T09:30:24.032Z,999.45
2023-04-12T09:31:24.236Z,999.45
2023-04-12T09:32:24.436Z,999.34
2023-04-12T09:33:24.597Z,999.48
2023-04-12T09:34:26.593Z,999.42
2023-04-12T09:35:25.038Z,999.46
2023-04-12T09:36:25.364Z,999.43
2023-04-12T09:37:25.662Z,999.44
2023-04-12T09:38:25.820Z,999.50
2023-04-12T09:39:26.129Z,999.48
2023-04-12T09:40:26.419Z,999.47
2023-04-12T09:41:27.377Z,999.46
2023-04-12T09:42:33.252Z,999.48
2023-04-12T09:43:27.077Z,999.44
2023-04-12T09:44:27.273Z,999.43
2023-04-12T09:45:27.564Z,999.39
2023-04-12T09:46:27.779Z,999.40
2023-04-12T09:47:28.087Z,999.39
2023-04-12T09:48:28.319Z,999.36
2023-04-12T09:49:28.618Z,999.44
2023-04-12T09:50:29.041Z,999.31
2023-04-12T09:51:29.197Z,999.33
2023-04-12T09:52:30.731Z,999.31
2023-04-12T09:53:29.618Z,999.30
2023-04-12T09:54:29.878Z,999.31
2023-04-12T09:55:30.056Z,999.25
2023-04-12T09:56:30.239Z,999.31
2023-04-12T09:57:30.426Z,999.29
2023-04-12T09:58:31.729Z,999.25
2023-04-12T09:59:30.993Z,999.26
2023-04-12T10:00:31.299Z,999.30
2023-04-12T10:01:31.485Z,999.31
2023-04-12T10:02:32.037Z,999.22
2023-04-12T10:03:32.198Z,999.18
2023-04-12T10:04:32.371Z,999.22
2023-04-12T10:05:32.673Z,999.23
2023-04-12T10:06:32.863Z,999.24
2023-04-12T10:07:33.153Z,999.23
2023-04-12T10:08:33.316Z,999.22
2023-04-12T10:09:33.500Z,999.17
2023-04-12T10:10:33.661Z,999.22
2023-04-12T10:11:33.867Z,999.15
2023-04-12T10:12:34.060Z,999.18
2023-04-12T10:13:34.187Z,999.10
2023-04-12T10:14:34.366Z,999.16
2023-04-12T10:15:34.546Z,999.16
2023-04-12T10:16:34.785Z,999.18
2023-04-12T10:17:34.936Z,999.20
2023-04-12T10:18:35.190Z,999.24
2023-04-12T10:19:35.374Z,999.18
2023-04-12T10:20:35.541Z,999.15
2023-04-12T10:21:35.711Z,999.20
2023-04-12T10:22:36.051Z,999.15
2023-04-12T10:23:36.292Z,999.23
2023-04-12T10:24:36.628Z,999.19
2023-04-12T10:25:36.751Z,999.16
2023-04-12T10:26:36.937Z,999.20
2023-04-12T10:27:37.267Z,999.17
2023-04-12T10:28:37.396Z,999.18
2023-04-12T10:29:37.579Z,999.17
2023-04-12T10:30:37.781Z,999.15
2023-04-12T10:31:37.998Z,999.12
2023-04-12T10:32:38.185Z,999.13
2023-04-12T10:33:38.386Z,999.11
2023-04-12T10:34:38.678Z,999.12
2023-04-12T10:35:38.964Z,999.10
2023-04-12T10:36:39.138Z,999.08
2023-04-12T10:37:39.355Z,999.18
2023-04-12T10:38:39.511Z,999.11
2023-04-12T10:39:39.668Z,999.16
2023-04-12T10:40:39.840Z,999.11
2023-04-12T10:41:40.015Z,999.07
2023-04-12T10:42:40.213Z,999.02
2023-04-12T10:43:40.414Z,999.07
2023-04-12T10:44:40.542Z,999.00
2023-04-12T10:45:40.717Z,999.07
2023-04-12T10:46:41.017Z,999.12
2023-04-12T10:47:41.123Z,999.08
2023-04-12T10:48:41.250Z,999.07
2023-04-12T10:49:41.536Z,999.07
2023-04-12T10:50:41.775Z,999.04
2023-04-12T10:51:42.002Z,999.16
2023-04-12T10:52:42.172Z,999.05
2023-04-12T10:53:42.319Z,999.06
2023-04-12T10:54:42.482Z,999.06
2023-04-12T10:55:42.682Z,999.05
2023-04-12T10:56:42.887Z,999.03
2023-04-12T10:57:43.073Z,999.06
2023-04-12T10:58:43.250Z,999.01
2023-04-12T10:59:47.663Z,999.05
2023-04-12T11:00:43.664Z,998.99
2023-04-12T11:01:43.946Z,999.05
2023-04-12T11:02:44.223Z,999.02
2023-04-12T11:03:44.309Z,999.04
2023-04-12T11:04:44.409Z,999.02
2023-04-12T11:05:44.575Z,999.08
2023-04-12T11:06:44.743Z,999.05
2023-04-12T11:07:44.914Z,999.05
2023-04-12T11:08:45.056Z,999.02
2023-04-12T11:09:45.239Z,999.03
2023-04-12T11:10:45.419Z,999.09
2023-04-12T11:11:45.618Z,999.00
2023-04-12T11:12:45.813Z,999.09
2023-04-12T11:13:45.925Z,999.15
2023-04-12T11:14:46.109Z,999.11
2023-04-12T11:15:46.272Z,999.16
2023-04-12T11:16:46.475Z,999.17
2023-04-12T11:17:46.740Z,999.09
2023-04-12T11:18:46.925Z,999.12
2023-04-12T11:19:47.114Z,999.11
2023-04-12T11:20:47.279Z,999.09
2023-04-12T11:21:47.463Z,999.15
2023-04-12T11:22:47.637Z,999.14
2023-04-12T11:23:47.824Z,999.07
2023-04-12T11:24:47.993Z,999.07
2023-04-12T11:25:48.197Z,999.10
2023-04-12T11:26:48.336Z,999.07
2023-04-12T11:27:48.516Z,999.04
2023-04-12T11:28:48.682Z,999.01
2023-04-12T11:29:48.864Z,998.97
2023-04-12T11:30:49.150Z,999.09
2023-04-12T11:31:49.407Z,998.95
2023-04-12T11:32:49.572Z,998.98
2023-04-12T11:33:49.682Z,998.92
2023-04-12T11:34:49.867Z,998.90
2023-04-12T11:35:50.146Z,998.87
2023-04-12T11:36:50.333Z,998.76
2023-04-12T11:37:50.519Z,998.75
2023-04-12T11:38:50.685Z,998.80
2023-04-12T11:39:50.870Z,998.78
2023-04-12T11:40:51.034Z,998.70
2023-04-12T11:41:51.217Z,998.75
2023-04-12T11:42:51.413Z,998.64
2023-04-12T11:43:51.584Z,998.71
2023-04-12T11:44:58.565Z,998.61
2023-04-12T11:45:52.055Z,998.62
2023-04-12T11:46:52.331Z,998.67
2023-04-12T11:47:52.696Z,998.69
2023-04-12T11:48:52.779Z,998.60
2023-04-12T11:49:53.087Z,998.55
2023-04-12T11:51:07.846Z,998.55
2023-04-12T11:51:53.415Z,998.57
2023-04-12T11:52:53.714Z,998.50
2023-04-12T11:53:54.029Z,998.56
2023-04-12T11:54:54.180Z,998.48
2023-04-12T11:55:54.349Z,998.57
2023-04-12T11:56:54.613Z,998.53
2023-04-12T11:57:54.816Z,998.54
2023-04-12T11:58:54.990Z,998.47
2023-04-12T11:59:55.136Z,998.44
2023-04-12T12:00:55.323Z,998.45
2023-04-12T12:01:55.516Z,998.49
2023-04-12T12:03:06.614Z,998.48
2023-04-12T12:03:56.114Z,998.49
2023-04-12T12:04:56.270Z,998.41
2023-04-12T12:05:56.644Z,998.49
2023-04-12T12:06:57.012Z,998.45
2023-04-12T12:07:58.043Z,998.45
2023-04-12T12:08:56.978Z,998.47
2023-04-12T12:09:57.151Z,998.41
2023-04-12T12:11:07.217Z,998.43
2023-04-12T12:11:57.561Z,998.43
2023-04-12T12:12:57.688Z,998.42
2023-04-12T12:13:58.060Z,998.42
2023-04-12T12:14:58.152Z,998.35